Time;durP1;ratioP1;P1;durP2;ratioP2;P2;SDS_P1;SDS_P2;PMS_P1;PMS_P2;Temp;Humidity;BMP_temperature;BMP_pressure;BME280_temperature;BME280_humidity;BME280_pressure;Samples;Min_cycle;Max_cycle;Signal;HPM_P1;HPM_P2
2024/02/15 00:03:19;;;;;;;29.20;18.10;;;;;;;6.91;100.00;100989.02;5025294;57;1143066;-80
2024/02/15 00:08:26;;;;;;;32.10;16.67;;;;;;;6.93;100.00;100989.78;5004992;57;1142878;-80
2024/02/15 00:13:33;;;;;;;29.07;17.80;;;;;;;6.94;100.00;100992.80;4995996;57;1143208;-80
2024/02/15 00:18:39;;;;;;;28.83;16.80;;;;;;;6.94;100.00;100994.58;5033670;57;1143035;-80
2024/02/15 00:23:45;;;;;;;23.27;16.23;;;;;;;6.97;100.00;100989.16;5000736;57;1143107;-80
2024/02/15 00:28:50;;;;;;;24.03;14.20;;;;;;;6.97;100.00;100983.43;5002028;57;1142994;-80
2024/02/15 00:33:56;;;;;;;28.90;15.83;;;;;;;6.98;100.00;100984.28;4981318;57;1143400;-80
2024/02/15 00:39:03;;;;;;;25.33;14.10;;;;;;;6.98;100.00;100984.28;4887064;58;1143737;-80
2024/02/15 00:44:11;;;;;;;21.60;15.93;;;;;;;7.00;100.00;100978.47;4897827;57;1142827;-80
2024/02/15 00:49:18;;;;;;;21.60;14.47;;;;;;;7.01;100.00;100972.28;4870292;58;1142986;-80
2024/02/15 00:54:24;;;;;;;24.33;14.10;;;;;;;6.97;100.00;100971.59;4832382;59;1142732;-80
2024/02/15 00:59:29;;;;;;;23.33;14.47;;;;;;;7.04;100.00;100979.98;4869505;58;1142703;-80
2024/02/15 01:04:36;;;;;;;25.97;16.37;;;;;;;7.06;100.00;100991.27;4956393;57;1143367;-80
2024/02/15 01:09:41;;;;;;;19.57;13.50;;;;;;;7.08;100.00;100989.87;4970172;57;1142880;-80
2024/02/15 01:14:47;;;;;;;24.00;14.85;;;;;;;7.10;100.00;100981.43;4967823;57;1142785;-80
2024/02/15 01:19:53;;;;;;;22.53;15.07;;;;;;;7.11;100.00;100980.50;4971220;57;1143295;-80
2024/02/15 01:24:59;;;;;;;25.75;16.45;;;;;;;7.13;100.00;100981.27;4993445;57;1143184;-80
2024/02/15 01:30:05;;;;;;;24.93;15.37;;;;;;;7.15;100.00;100985.51;4836174;57;1142966;-80
2024/02/15 01:35:11;;;;;;;23.40;13.98;;;;;;;7.16;100.00;100985.89;4837775;59;1143860;-80
2024/02/15 01:40:18;;;;;;;21.33;13.00;;;;;;;7.19;100.00;100987.02;4849204;58;1143581;-80
2024/02/15 01:45:23;;;;;;;23.23;13.80;;;;;;;7.20;100.00;100986.08;4850222;58;1143165;-80
2024/02/15 01:50:29;;;;;;;20.90;12.73;;;;;;;7.21;100.00;100977.25;4942074;58;1143160;-80
2024/02/15 01:55:35;;;;;;;21.17;13.03;;;;;;;7.24;100.00;100972.30;4864490;58;1143292;-80
2024/02/15 02:00:41;;;;;;;24.13;14.47;;;;;;;7.25;100.00;100967.41;4942761;58;1143092;-80
2024/02/15 02:05:47;;;;;;;21.87;13.67;;;;;;;7.27;100.00;100961.14;4852443;58;1143304;-80
2024/02/15 02:10:53;;;;;;;22.10;12.53;;;;;;;7.29;100.00;100959.73;4870019;58;1143570;-80
2024/02/15 02:16:00;;;;;;;19.63;12.17;;;;;;;7.30;100.00;100962.28;4895960;58;1203151;-81
2024/02/15 02:21:06;;;;;;;19.00;11.90;;;;;;;7.29;100.00;100955.33;4928522;58;1142775;-80
2024/02/15 02:26:12;;;;;;;23.17;13.17;;;;;;;7.31;100.00;100956.55;4819827;59;1142908;-80
2024/02/15 02:31:17;;;;;;;20.30;13.15;;;;;;;7.33;100.00;100950.74;4850283;58;1143015;-80
2024/02/15 02:36:26;;;;;;;23.83;13.33;;;;;;;7.34;100.00;100953.26;4796209;58;1142999;-80
2024/02/15 02:41:30;;;;;;;26.50;14.17;;;;;;;7.37;100.00;100949.14;4872305;57;1143298;-80
2024/02/15 02:46:36;;;;;;;16.77;11.87;;;;;;;7.39;100.00;100947.73;4879872;58;1142999;-80
2024/02/15 02:51:41;;;;;;;30.47;12.13;;;;;;;7.39;100.00;100944.64;4858240;58;1142676;-80
2024/02/15 02:56:47;;;;;;;20.17;11.63;;;;;;;7.37;100.00;100934.67;4786124;59;1142823;-81
2024/02/15 03:01:56;;;;;;;21.20;12.70;;;;;;;7.37;100.00;100941.25;4882367;58;1143372;-81
2024/02/15 03:07:00;;;;;;;16.93;11.67;;;;;;;7.37;100.00;100937.77;4899436;58;1143146;-80
2024/02/15 03:12:06;;;;;;;22.00;13.30;;;;;;;7.36;100.00;100941.33;4880132;58;1147924;-81
2024/02/15 03:17:11;;;;;;;26.93;13.87;;;;;;;7.36;100.00;100935.60;4866653;58;1143034;-80
2024/02/15 03:22:17;;;;;;;19.45;11.30;;;;;;;7.35;100.00;100940.48;4938503;58;1142792;-80
2024/02/15 03:27:23;;;;;;;18.23;11.90;;;;;;;7.32;100.00;100944.63;4903753;58;1142978;-80
2024/02/15 03:32:28;;;;;;;20.60;11.40;;;;;;;7.35;100.00;100953.64;4822989;58;1143809;-81
2024/02/15 03:37:36;;;;;;;21.07;11.90;;;;;;;7.37;100.00;100961.45;4855331;58;1143000;-80
2024/02/15 03:42:41;;;;;;;19.17;11.00;;;;;;;7.37;100.00;100959.67;4900417;58;1142875;-80
2024/02/15 03:47:47;;;;;;;24.98;12.98;;;;;;;7.36;100.00;100963.23;4899110;58;1143031;-80
2024/02/15 03:52:52;;;;;;;19.42;12.25;;;;;;;7.33;100.00;100959.95;4747024;59;1143347;-80
2024/02/15 03:57:58;;;;;;;24.80;13.03;;;;;;;7.34;100.00;100957.20;4919713;58;1142703;-80
2024/02/15 04:03:05;;;;;;;24.80;14.03;;;;;;;7.35;100.00;100953.64;4858559;58;1142841;-80
2024/02/15 04:08:10;;;;;;;16.57;11.48;;;;;;;7.34;100.00;100953.26;4961781;57;1143056;-80
2024/02/15 04:13:16;;;;;;;24.80;12.20;;;;;;;7.35;100.00;100960.69;4910685;57;1143171;-80
2024/02/15 04:18:22;;;;;;;21.95;12.30;;;;;;;7.34;100.00;100958.98;4913714;57;1142856;-80
2024/02/15 04:23:27;;;;;;;22.60;12.13;;;;;;;7.33;100.00;100966.03;4916923;58;1142668;-81
2024/02/15 04:28:33;;;;;;;18.33;10.90;;;;;;;7.33;100.00;100950.24;4783826;59;1143270;-80
2024/02/15 04:33:39;;;;;;;17.20;12.23;;;;;;;7.37;100.00;100953.55;4792312;59;1143442;-81
2024/02/15 04:38:45;;;;;;;25.23;13.70;;;;;;;7.37;100.00;100956.19;4707594;58;1143039;-80
2024/02/15 04:43:55;;;;;;;25.43;13.20;;;;;;;7.42;100.00;100955.47;4776590;58;1142884;-79
2024/02/15 04:49:03;;;;;;;21.73;12.60;;;;;;;7.47;100.00;100955.20;4921094;59;1143085;-79
2024/02/15 04:54:12;;;;;;;25.20;12.75;;;;;;;7.52;100.00;100961.03;4887321;58;1143041;-79
2024/02/15 04:59:16;;;;;;;21.12;13.18;;;;;;;7.51;100.00;100964.59;4735470;59;1142963;-80
2024/02/15 05:04:22;;;;;;;26.93;11.85;;;;;;;7.50;100.00;100964.22;4856536;58;1143023;-80
2024/02/15 05:09:28;;;;;;;19.53;10.43;;;;;;;7.50;100.00;100962.90;4879883;58;1142975;-80
2024/02/15 05:14:36;;;;;;;25.05;10.82;;;;;;;7.48;100.00;100964.80;4824969;59;1143082;-80
2024/02/15 05:19:40;;;;;;;19.50;11.23;;;;;;;7.46;100.00;100963.57;4833327;59;1142900;-79
2024/02/15 05:24:46;;;;;;;13.13;9.60;;;;;;;7.46;100.00;100964.89;4767072;59;1143131;-79
2024/02/15 05:29:52;;;;;;;20.40;11.17;;;;;;;7.49;100.00;100959.89;4913428;58;1140908;-80
2024/02/15 05:34:58;;;;;;;16.10;11.53;;;;;;;7.49;100.00;100965.15;4846409;58;1142854;-79
2024/02/15 05:40:05;;;;;;;21.23;12.43;;;;;;;7.52;100.00;100966.30;4888951;58;1143082;-80
2024/02/15 05:45:34;;;;;;;18.57;11.47;;;;;;;7.52;100.00;100971.09;4862382;58;1143116;-79
2024/02/15 05:50:37;;;;;;;18.90;12.10;;;;;;;7.51;100.00;100966.77;4832718;59;1143435;-80
2024/02/15 05:55:44;;;;;;;20.50;12.37;;;;;;;7.54;100.00;100964.42;4887023;58;1142874;-80
2024/02/15 06:00:53;;;;;;;19.77;12.07;;;;;;;7.54;100.00;100971.86;4861359;58;1142942;-79
2024/02/15 06:06:01;;;;;;;19.60;11.60;;;;;;;7.52;100.00;100972.41;4886086;58;1142711;-79
2024/02/15 06:11:07;;;;;;;20.03;10.57;;;;;;;7.54;100.00;100980.22;4875544;58;1151089;-79
2024/02/15 06:16:13;;;;;;;17.77;10.23;;;;;;;7.53;100.00;100980.69;4835308;58;1143014;-79
2024/02/15 06:21:20;;;;;;;18.50;10.68;;;;;;;7.50;100.00;100982.17;4869013;57;1142905;-79
2024/02/15 06:26:28;;;;;;;24.75;12.43;;;;;;;7.51;100.00;100992.23;4845659;58;1142843;-80
2024/02/15 06:42:22;;;;;;;18.20;12.30;;;;;;;7.48;100.00;101001.65;4941708;57;1143878;-79
2024/02/15 06:47:30;;;;;;;19.97;12.20;;;;;;;7.49;100.00;101004.62;4920239;57;1143339;-79
2024/02/15 06:52:36;;;;;;;75.93;36.83;;;;;;;7.49;100.00;101003.31;4968565;57;1142784;-80
2024/02/15 06:57:42;;;;;;;23.40;16.57;;;;;;;7.48;100.00;101002.96;4977380;57;1142758;-79
2024/02/15 07:02:48;;;;;;;19.33;12.10;;;;;;;7.50;100.00;101012.44;4986953;57;1142857;-79
2024/02/15 07:07:56;;;;;;;23.25;15.18;;;;;;;7.52;100.00;101011.89;4902589;58;1143567;-80
2024/02/15 07:13:03;;;;;;;18.93;11.60;;;;;;;7.56;100.00;101009.94;4892051;58;1142846;-79
2024/02/15 07:18:10;;;;;;;20.07;11.97;;;;;;;7.61;100.00;101010.53;4909370;57;1143214;-79
2024/02/15 07:23:16;;;;;;;29.00;13.48;;;;;;;7.64;100.00;101020.39;4952219;57;1142787;-79
2024/02/15 07:28:22;;;;;;;21.90;11.70;;;;;;;7.67;100.00;101005.74;5007021;57;1142740;-80
2024/02/15 07:33:28;;;;;;;15.93;10.40;;;;;;;7.74;100.00;101008.41;4992136;57;1143102;-80
2024/02/15 07:38:34;;;;;;;18.30;11.00;;;;;;;7.78;100.00;101014.36;4933532;57;1143110;-80
2024/02/15 07:43:40;;;;;;;20.13;11.73;;;;;;;7.82;100.00;101019.80;4990084;57;1143177;-80
2024/02/15 07:48:47;;;;;;;25.53;11.70;;;;;;;7.88;100.00;101014.19;4963059;57;1143303;-80
2024/02/15 07:53:54;;;;;;;19.40;11.33;;;;;;;7.92;100.00;101016.19;4955995;57;1142735;-80
2024/02/15 07:59:00;;;;;;;14.40;9.87;;;;;;;7.96;100.00;101021.62;4989700;57;1142615;-79
2024/02/15 08:04:08;;;;;;;21.43;10.57;;;;;;;7.99;100.00;101017.50;4913608;58;1140689;-79
2024/02/15 08:09:13;;;;;;;15.40;9.50;;;;;;;8.07;100.00;101008.23;4896114;57;1143103;-79
2024/02/15 08:14:20;;;;;;;19.35;10.35;;;;;;;8.13;100.00;101017.06;4950163;57;1140946;-80
2024/02/15 08:19:28;;;;;;;15.63;9.83;;;;;;;8.20;100.00;101020.66;4958017;57;1234723;-79
2024/02/15 08:24:33;;;;;;;19.23;9.90;;;;;;;8.27;100.00;101026.78;5014584;57;1140602;-78
2024/02/15 08:29:38;;;;;;;19.03;11.87;;;;;;;8.32;100.00;101022.59;5005209;57;1141029;-78
2024/02/15 08:34:44;;;;;;;25.07;10.53;;;;;;;8.36;100.00;101031.55;5043285;57;1142957;-78
2024/02/15 08:39:49;;;;;;;15.90;10.57;;;;;;;8.37;100.00;101031.08;4982346;57;1143250;-79
2024/02/15 08:44:56;;;;;;;20.60;10.37;;;;;;;8.39;100.00;101033.16;4959222;57;1142936;-78
2024/02/15 08:50:01;;;;;;;21.93;14.23;;;;;;;8.39;100.00;101041.91;5005413;57;1143501;-78
2024/02/15 08:55:09;;;;;;;22.35;13.08;;;;;;;8.44;100.00;101048.20;4962286;57;1143262;-79
2024/02/15 09:00:16;;;;;;;20.93;10.63;;;;;;;8.49;100.00;101041.34;4992864;57;1143012;-79
2024/02/15 09:05:22;;;;;;;16.03;9.67;;;;;;;8.50;100.00;101036.45;5014754;57;1143013;-78
2024/02/15 09:10:28;;;;;;;24.23;14.40;;;;;;;8.54;100.00;101032.23;4951990;57;1141870;-79
2024/02/15 09:15:33;;;;;;;25.60;14.50;;;;;;;8.57;100.00;101029.84;4932892;57;1143019;-79
2024/02/15 09:20:44;;;;;;;24.03;14.37;;;;;;;8.64;100.00;101033.35;4979135;56;1143057;-79
2024/02/15 09:25:49;;;;;;;26.17;13.10;;;;;;;8.71;100.00;101032.02;4970176;57;1142971;-78
2024/02/15 09:30:58;;;;;;;24.53;14.07;;;;;;;8.74;100.00;101035.78;4965644;57;1142910;-78
2024/02/15 09:36:01;;;;;;;28.17;13.60;;;;;;;8.77;100.00;101041.34;5042306;56;1142736;-78
2024/02/15 09:41:09;;;;;;;22.77;12.63;;;;;;;8.83;100.00;101034.86;4888952;58;1142774;-78
2024/02/15 09:46:17;;;;;;;30.95;13.75;;;;;;;8.86;100.00;101035.49;4874926;59;1143001;-78
2024/02/15 09:51:23;;;;;;;25.85;13.83;;;;;;;8.89;100.00;101031.82;4950831;58;1143063;-78
2024/02/15 09:56:33;;;;;;;23.07;13.07;;;;;;;8.90;100.00;101022.50;4948323;58;1143287;-78
2024/02/15 10:01:40;;;;;;;23.37;13.40;;;;;;;8.98;100.00;101025.52;4885147;57;1143535;-78
2024/02/15 10:06:46;;;;;;;26.83;13.80;;;;;;;9.02;100.00;101025.67;4948748;58;1143171;-78
2024/02/15 10:12:00;;;;;;;25.80;14.03;;;;;;;9.07;100.00;101029.36;4932861;58;1142937;-79
2024/02/15 10:17:11;;;;;;;24.07;14.43;;;;;;;9.10;100.00;101031.34;4826921;58;1142879;-78
2024/02/15 10:22:16;;;;;;;23.17;12.33;;;;;;;9.12;100.00;101024.64;4847395;59;1143054;-78
2024/02/15 10:27:25;;;;;;;20.68;12.58;;;;;;;9.17;100.00;101030.45;4860262;59;1142921;-78
2024/02/15 10:32:38;;;;;;;21.03;13.67;;;;;;;9.17;100.00;101022.06;4913346;58;1143209;-78
2024/02/15 10:37:43;;;;;;;18.73;13.00;;;;;;;9.24;100.00;101019.05;4718381;59;1143370;-79
2024/02/15 10:42:51;;;;;;;21.83;13.67;;;;;;;9.28;100.00;101008.67;4809086;60;1143161;-78
2024/02/15 10:47:57;;;;;;;23.57;13.63;;;;;;;9.33;100.00;101009.20;4976421;57;1143074;-79
2024/02/15 10:53:07;;;;;;;23.07;14.37;;;;;;;9.41;100.00;101002.50;4952427;57;1142941;-79
2024/02/15 10:58:17;;;;;;;22.80;12.63;;;;;;;9.50;100.00;101013.77;4943746;58;1143818;-79
2024/02/15 11:03:27;;;;;;;20.47;12.00;;;;;;;9.55;100.00;101016.59;4894278;57;1143156;-79
2024/02/15 11:08:33;;;;;;;40.83;17.43;;;;;;;9.58;100.00;101017.72;4759651;59;1142549;-79
2024/02/15 11:13:38;;;;;;;31.90;16.82;;;;;;;9.62;100.00;101012.63;4798506;59;1143223;-79
2024/02/15 11:18:51;;;;;;;29.37;13.40;;;;;;;9.67;100.00;101011.82;4847637;59;1143231;-78
2024/02/15 11:23:56;;;;;;;17.70;11.40;;;;;;;9.70;100.00;100998.42;4867797;59;1143280;-78
2024/02/15 11:29:03;;;;;;;27.17;13.60;;;;;;;9.73;100.00;101006.99;4920730;57;1142997;-79
2024/02/15 11:34:48;;;;;;;19.10;11.78;;;;;;;9.79;100.00;101003.92;5002654;58;1142970;-78
2024/02/15 11:40:02;;;;;;;19.70;12.07;;;;;;;9.83;100.00;100996.17;4977355;58;1142708;-78
2024/02/15 11:45:08;;;;;;;18.53;11.67;;;;;;;9.87;100.00;100989.75;4976377;58;1142850;-78
2024/02/15 11:50:14;;;;;;;17.53;10.40;;;;;;;9.92;100.00;100993.41;5015200;58;1142907;-79
2024/02/15 11:55:24;;;;;;;21.83;12.67;;;;;;;9.96;100.00;100986.95;4960861;58;1142716;-79
2024/02/15 12:22:04;;;;;;;20.67;12.17;;;;;;;10.13;100.00;100974.76;5036012;58;978475;-79
2024/02/15 12:27:10;;;;;;;42.47;26.20;;;;;;;10.19;100.00;100967.77;5052199;57;1143124;-79
2024/02/15 12:32:23;;;;;;;21.33;12.83;;;;;;;10.32;100.00;100966.45;5072179;57;1145247;-78
2024/02/15 12:37:29;;;;;;;38.30;24.67;;;;;;;10.32;100.00;100966.45;5036770;57;1145250;-79
2024/02/15 12:42:41;;;;;;;18.43;12.97;;;;;;;10.38;100.00;100975.77;5015512;57;1145811;-77
2024/02/15 12:47:49;;;;;;;22.03;15.17;;;;;;;10.38;100.00;100970.48;4998259;57;1145289;-78
2024/02/15 12:53:05;;;;;;;16.43;11.07;;;;;;;10.35;100.00;100967.56;5017034;57;1145272;-79
2024/02/15 12:58:17;;;;;;;15.57;10.60;;;;;;;10.34;100.00;100966.34;4966707;58;1145246;-79
2024/02/15 13:03:22;;;;;;;26.17;17.90;;;;;;;10.37;100.00;100968.78;4788671;59;1145027;-79
2024/02/15 13:08:28;;;;;;;22.45;15.23;;;;;;;10.38;100.00;100962.54;4970541;58;1145831;-79
2024/02/15 13:13:34;;;;;;;17.82;11.33;;;;;;;10.37;100.00;100969.63;4965638;58;1145274;-79
2024/02/15 13:18:40;;;;;;;20.23;12.37;;;;;;;10.39;100.00;100969.52;5007422;58;1145655;-79
2024/02/15 13:23:49;;;;;;;25.40;14.17;;;;;;;10.36;100.00;100969.25;4887899;58;1145287;-79
2024/02/15 13:28:54;;;;;;;18.98;12.13;;;;;;;10.35;100.00;100965.39;4988291;58;1145290;-78
2024/02/15 13:34:00;;;;;;;25.67;13.70;;;;;;;10.34;100.00;100968.52;5014661;58;1145085;-78
2024/02/15 13:39:09;;;;;;;17.93;10.90;;;;;;;10.34;100.00;100968.98;4985608;58;1144814;-78
2024/02/15 13:44:14;;;;;;;30.37;15.73;;;;;;;10.32;100.00;100967.77;4941683;58;1144884;-79
2024/02/15 13:49:20;;;;;;;25.90;14.77;;;;;;;10.29;100.00;100967.98;4859148;57;1145052;-78
2024/02/15 13:54:25;;;;;;;21.80;14.63;;;;;;;10.25;100.00;100970.45;4949354;58;1145524;-79
2024/02/15 13:59:31;;;;;;;31.80;16.97;;;;;;;10.23;100.00;100965.77;4989973;56;1144957;-79
2024/02/15 14:04:38;;;;;;;35.07;21.03;;;;;;;10.23;100.00;100967.57;5018973;57;1145425;-79
2024/02/15 14:09:44;;;;;;;45.47;24.07;;;;;;;10.21;100.00;100967.20;4885386;58;1145414;-79
2024/02/15 14:14:49;;;;;;;27.07;17.00;;;;;;;10.23;100.00;100962.28;4881814;59;1144804;-79
2024/02/15 14:19:57;;;;;;;26.30;15.17;;;;;;;10.25;100.00;100963.00;4795715;58;1156423;-79
2024/02/15 14:25:05;;;;;;;24.13;14.37;;;;;;;10.23;100.00;100960.48;4768753;60;1145421;-78
2024/02/15 14:35:40;;;;;;;27.10;15.53;;;;;;;10.27;100.00;100968.55;4844286;58;1163511;-78
2024/02/15 14:40:58;;;;;;;32.93;17.17;;;;;;;10.26;100.00;100977.91;4850325;58;1145088;-79
2024/02/15 14:45:59;;;;;;;30.93;16.80;;;;;;;10.26;100.00;100978.75;4887808;58;1145097;-79
2024/02/15 14:51:04;;;;;;;29.17;15.97;;;;;;;10.26;100.00;100985.84;4898654;58;1144953;-78
2024/02/15 14:56:10;;;;;;;36.43;18.27;;;;;;;10.26;100.00;100988.01;4904864;58;1144958;-78
2024/02/15 15:01:15;;;;;;;29.50;19.10;;;;;;;10.26;100.00;100986.69;4908446;57;1144924;-78
2024/02/15 15:17:09;;;;;;;33.48;21.02;;;;;;;10.24;100.00;101000.48;4863484;57;1145316;-79
2024/02/15 15:22:18;;;;;;;41.73;24.50;;;;;;;10.20;100.00;100996.37;4911774;57;1144655;-78
2024/02/15 15:27:23;;;;;;;78.77;48.23;;;;;;;10.19;100.00;100999.49;4915182;57;1180722;-79
2024/02/15 15:32:29;;;;;;;70.50;42.27;;;;;;;10.20;100.00;100991.94;5023417;56;1245294;-79
2024/02/15 15:37:35;;;;;;;167.95;116.17;;;;;;;10.23;100.00;100997.50;4968448;57;1246077;-78
2024/02/15 15:42:43;;;;;;;183.75;92.78;;;;;;;10.24;100.00;100995.19;4925331;57;1149837;-79
2024/02/15 15:47:49;;;;;;;200.30;104.33;;;;;;;10.25;100.00;101002.17;4832601;58;1256079;-78
2024/02/15 15:52:56;;;;;;;58.67;36.93;;;;;;;10.23;100.00;100996.98;4857225;58;1256577;-78
2024/02/15 15:58:02;;;;;;;49.90;31.33;;;;;;;10.23;100.00;101000.14;4891918;58;1261392;-79
2024/02/15 16:03:08;;;;;;;37.67;24.90;;;;;;;10.23;100.00;100990.38;4892653;58;1187058;-80
2024/02/15 16:08:14;;;;;;;40.20;26.17;;;;;;;10.24;100.00;100996.52;4904925;58;1260461;-79
2024/02/15 16:13:20;;;;;;;43.63;27.07;;;;;;;10.23;100.00;100990.89;4911900;58;1152998;-78
2024/02/15 16:18:25;;;;;;;47.58;28.45;;;;;;;10.23;100.00;101000.61;4847749;58;1260230;-79
2024/02/15 16:23:31;;;;;;;76.40;47.50;;;;;;;10.23;100.00;100999.30;4877821;58;1249855;-78
2024/02/15 16:28:36;;;;;;;52.00;34.57;;;;;;;10.23;100.00;101003.59;4855498;58;1145399;-79
2024/02/15 16:33:42;;;;;;;49.18;27.95;;;;;;;10.23;100.00;101003.59;4861393;58;1145452;-79
2024/02/15 16:38:47;;;;;;;62.30;35.83;;;;;;;10.24;100.00;101011.05;4865129;57;1144921;-79
2024/02/15 16:43:56;;;;;;;47.17;29.50;;;;;;;10.23;100.00;101002.78;4910635;57;1145077;-78
2024/02/15 16:49:01;;;;;;;59.73;33.73;;;;;;;10.26;100.00;100995.94;4930346;57;1145068;-79
2024/02/15 16:54:08;;;;;;;80.73;45.53;;;;;;;10.28;100.00;101003.77;4915333;58;1145045;-79
2024/02/15 16:59:13;;;;;;;60.50;33.37;;;;;;;10.31;100.00;101007.05;4927244;57;1145313;-77
2024/02/15 17:04:19;;;;;;;83.47;46.17;;;;;;;10.33;100.00;101015.73;4925886;58;1176750;-80
2024/02/15 17:09:25;;;;;;;113.00;64.60;;;;;;;10.37;100.00;101015.90;4840665;58;1145451;-79
2024/02/15 17:14:31;;;;;;;56.10;36.17;;;;;;;10.35;100.00;101023.09;4725254;58;1147075;-80
2024/02/15 17:19:37;;;;;;;48.90;33.76;;;;;;;10.32;100.00;101025.09;4826157;59;1144866;-80
2024/02/15 17:24:45;;;;;;;53.83;32.90;;;;;;;10.28;100.00;101032.38;4838599;59;1145113;-80
2024/02/15 17:29:50;;;;;;;64.40;36.30;;;;;;;10.28;100.00;101041.63;4839371;58;1144972;-77
2024/02/15 17:34:56;;;;;;;78.37;38.00;;;;;;;10.29;100.00;101036.71;4846863;58;1145202;-78
2024/02/15 17:40:03;;;;;;;63.73;35.85;;;;;;;10.27;100.00;101037.28;4898926;58;1145496;-77
2024/02/15 17:45:12;;;;;;;54.10;28.67;;;;;;;10.25;100.00;101035.22;4942309;57;1145133;-77
2024/02/15 17:50:22;;;;;;;115.20;60.63;;;;;;;10.24;100.00;101036.16;4941208;57;1144967;-79
2024/02/15 17:55:25;;;;;;;94.75;54.98;;;;;;;10.26;100.00;101033.42;4963045;57;1147046;-77
2024/02/15 18:00:31;;;;;;;49.60;32.35;;;;;;;10.27;100.00;101036.44;4912716;58;1145076;-80
2024/02/15 18:05:45;;;;;;;53.50;29.12;;;;;;;10.29;100.00;101041.16;5042306;56;1145372;-81
2024/02/15 18:10:46;;;;;;;28.55;20.10;;;;;;;10.32;100.00;101028.58;5032723;56;1144866;-77
2024/02/15 18:15:51;;;;;;;34.23;22.07;;;;;;;10.34;100.00;101021.39;5012011;57;1145030;-76
2024/02/15 18:20:59;;;;;;;52.10;32.93;;;;;;;10.37;100.00;101019.86;5023287;56;1145057;-79
2024/02/15 18:26:04;;;;;;;37.20;24.33;;;;;;;10.37;100.00;101026.47;5048331;57;1145176;-78
2024/02/15 18:31:13;;;;;;;52.57;27.23;;;;;;;10.37;100.00;101025.62;5015350;57;1145250;-78
2024/02/15 18:36:19;;;;;;;29.57;20.10;;;;;;;10.34;100.00;101020.55;5018065;57;1144961;-77
2024/02/15 18:41:24;;;;;;;29.63;20.77;;;;;;;10.37;100.00;101021.66;5015373;57;1144843;-78
2024/02/15 18:46:31;;;;;;;27.53;18.80;;;;;;;10.38;100.00;101029.49;5010317;56;1145289;-79
2024/02/15 18:51:37;;;;;;;26.33;18.67;;;;;;;10.38;100.00;101022.03;4990719;57;1145266;-79
2024/02/15 18:56:43;;;;;;;41.00;22.00;;;;;;;10.37;100.00;101013.73;4946576;57;1145370;-78
2024/02/15 19:01:49;;;;;;;29.70;17.20;;;;;;;10.38;100.00;101021.56;4893855;57;1145214;-80
2024/02/15 19:06:55;;;;;;;38.92;19.87;;;;;;;10.43;100.00;101022.55;4937542;57;1145132;-81
2024/02/15 19:12:01;;;;;;;65.20;36.57;;;;;;;10.44;100.00;101025.56;4984673;57;1145045;-80
2024/02/15 19:17:07;;;;;;;38.87;21.73;;;;;;;10.45;100.00;101031.22;4916884;57;1145017;-78
2024/02/15 19:22:12;;;;;;;37.50;22.63;;;;;;;10.42;100.00;101023.02;4926332;57;1144958;-77
2024/02/15 19:27:18;;;;;;;32.20;21.07;;;;;;;10.40;100.00;101024.07;4832576;58;1145267;-78
2024/02/15 19:32:26;;;;;;;39.37;22.57;;;;;;;10.43;100.00;101021.22;4829963;58;1144695;-78
2024/02/15 19:37:32;;;;;;;26.17;18.13;;;;;;;10.40;100.00;101020.10;4829019;58;1145786;-80
2024/02/15 19:42:39;;;;;;;31.77;19.75;;;;;;;10.39;100.00;101015.29;4822968;58;1144929;-80
2024/02/15 19:47:49;;;;;;;25.85;17.00;;;;;;;10.40;100.00;101013.49;4848029;58;1145166;-75
2024/02/15 19:52:57;;;;;;;28.87;18.87;;;;;;;10.40;100.00;101013.49;4818827;58;1145144;-82
2024/02/15 19:58:02;;;;;;;43.23;25.77;;;;;;;10.40;100.00;101018.30;4826333;58;1144887;-78
2024/02/15 20:03:08;;;;;;;31.67;20.07;;;;;;;10.41;100.00;101012.06;4835112;58;1145306;-79
2024/02/15 20:08:13;;;;;;;35.20;18.23;;;;;;;10.41;100.00;101008.58;4834744;58;1144993;-77
2024/02/15 20:13:19;;;;;;;24.00;17.57;;;;;;;10.39;100.00;101006.54;4890754;58;1145701;-78
2024/02/15 20:18:24;;;;;;;27.87;17.53;;;;;;;10.40;100.00;101009.52;4926695;58;1144912;-75
2024/02/15 20:23:30;;;;;;;50.17;27.97;;;;;;;10.39;100.00;101006.03;4817505;58;1145278;-77
2024/02/15 20:28:37;;;;;;;31.10;18.40;;;;;;;10.41;100.00;101005.45;4892949;57;1144969;-80
2024/02/15 20:33:42;;;;;;;60.70;35.23;;;;;;;10.43;100.00;101008.00;4877570;57;1145137;-79
2024/02/15 20:38:51;;;;;;;100.82;54.13;;;;;;;10.46;100.00;101011.28;4920752;56;1145188;-80
2024/02/15 20:43:55;;;;;;;81.67;47.00;;;;;;;10.44;100.00;101005.73;5010693;56;1147214;-81
2024/02/15 20:49:01;;;;;;;31.07;19.20;;;;;;;10.45;100.00;101004.77;4943916;57;1145180;-80
2024/02/15 20:54:07;;;;;;;31.47;19.53;;;;;;;10.44;100.00;100999.96;4976026;57;1144997;-78
2024/02/15 20:59:18;;;;;;;41.10;23.90;;;;;;;10.46;100.00;100999.86;4946680;57;1145207;-82
2024/02/15 21:04:19;;;;;;;28.67;17.83;;;;;;;10.44;100.00;101007.89;4935151;57;1145033;-79
2024/02/15 21:09:25;;;;;;;31.40;17.30;;;;;;;10.39;100.00;101007.36;4858205;58;1144985;-77
2024/02/15 21:14:31;;;;;;;30.83;17.27;;;;;;;10.37;100.00;101009.28;4749340;59;1145016;-78
2024/02/15 21:19:37;;;;;;;26.27;17.50;;;;;;;10.37;100.00;101002.68;4851860;58;1144877;-78
2024/02/15 21:24:43;;;;;;;27.60;18.30;;;;;;;10.38;100.00;101000.88;4782938;59;1145042;-79
2024/02/15 21:29:49;;;;;;;24.60;17.30;;;;;;;10.36;100.00;100995.70;4766256;58;1145051;-78
2024/02/15 21:34:56;;;;;;;23.60;15.73;;;;;;;10.37;100.00;101001.36;4989787;58;1144771;-78
2024/02/15 21:40:06;;;;;;;34.73;20.37;;;;;;;10.38;100.00;100997.77;4964027;58;1144951;-89
2024/02/15 21:45:12;;;;;;;30.73;19.77;;;;;;;10.38;100.00;100999.56;4986569;59;1144802;-81
2024/02/15 21:50:18;;;;;;;33.20;18.97;;;;;;;10.45;100.00;101000.33;4964153;58;1145114;-89
2024/02/15 21:55:25;;;;;;;36.80;18.03;;;;;;;10.48;100.00;100999.28;4876675;58;1145083;-85
2024/02/15 22:00:31;;;;;;;29.10;18.23;;;;;;;10.48;100.00;100997.48;4845528;60;1144918;-82
2024/02/15 22:05:36;;;;;;;25.10;17.20;;;;;;;10.47;100.00;100997.11;4941813;58;1145018;-87
2024/02/15 22:10:42;;;;;;;26.57;17.97;;;;;;;10.52;100.00;100993.68;4964557;57;1144819;-81
2024/02/15 22:15:48;;;;;;;32.37;20.23;;;;;;;10.51;100.00;100991.14;4803364;60;1145125;-88
2024/02/15 22:20:57;;;;;;;32.70;20.03;;;;;;;10.44;100.00;100992.50;4800872;59;1145259;-84
2024/02/15 22:26:01;;;;;;;30.67;18.50;;;;;;;10.37;100.00;100985.97;4906763;58;1144903;-82
2024/02/15 22:31:07;;;;;;;28.57;18.47;;;;;;;10.26;100.00;100981.39;4944531;58;1144756;-80
2024/02/15 22:36:27;;;;;;;25.63;17.37;;;;;;;10.20;100.00;100984.01;4943760;57;1144806;-84
2024/02/15 22:41:33;;;;;;;39.60;25.50;;;;;;;10.14;100.00;100975.61;5003258;56;1145143;-83
2024/02/15 22:46:47;;;;;;;28.93;16.80;;;;;;;10.07;100.00;100983.13;4970927;58;1144920;-86
2024/02/15 22:51:54;;;;;;;25.27;14.60;;;;;;;10.01;100.00;100984.85;4902173;59;1144789;-87
2024/02/15 22:57:00;;;;;;;24.73;16.70;;;;;;;9.98;100.00;100981.09;4869494;58;1145069;-87
2024/02/15 23:02:06;;;;;;;30.97;17.00;;;;;;;9.94;100.00;100983.56;4964084;57;1142818;-88
2024/02/15 23:07:11;;;;;;;35.20;16.47;;;;;;;9.91;100.00;100992.19;4978874;57;1143604;-85
2024/02/15 23:12:18;;;;;;;37.13;18.35;;;;;;;9.88;100.00;100986.63;4952741;57;1142918;-87
2024/02/15 23:17:27;;;;;;;43.87;21.93;;;;;;;9.88;100.00;100990.59;4885201;58;1143025;-79
2024/02/15 23:22:30;;;;;;;92.97;37.37;;;;;;;9.88;100.00;100989.27;4876076;58;1142847;-83